ドバイ の空港の天気 - METARとTAF

ドバイ国際空港 ( OMDB / DXB ) - アラブ首長国連邦 ドバイ
飛行場実況気象(Metar)
観測時間10/16 10:00 GST (10/16 06:00 UTC)
風向・風速北 3m/s
視程10km以上
天気現象
少しの雲 雲底高度 760m
気温31℃
湿度66%
気圧1015hPa
METAROMDB 160600Z VRB05KT 9999 FEW025 31/24 Q1015 BECMG 30012KT
過去の天気等 Google飛行場航空写真 Wunderground天気予報

過去48時間のMETAR

飛行場予報(TAF)
発表時間: 10/16 09:00 GST (10/16 05:00 UTC)
予報対象時間: 16日10時 GST ~ 17日16時 GST
風向・風速南西 3m/s
視程8000m
なし
16日10時 GST ~ 16日12時 GST に徐々に
風向・風速西北西 6m/s
16日20時 GST ~ 16日22時 GST に徐々に
風向・風速東 3m/s
17日11時 GST ~ 17日13時 GST に徐々に
風向・風速北北西 8m/s
TAF OMDB 160500Z 1606/1712 22005KT 8000 NSC
BECMG 1606/1608 30012KT
BECMG 1616/1618 09005KT
BECMG 1707/1709 33015KT